sensor_id;sensor_type;location;lat;lon;timestamp;pressure;altitude;pressure_sealevel;temperature;humidity
43364;BME280;40636;52.424;-1.948;2023-03-25T00:00:12;97867.38;;;7.51;100.00
43364;BME280;40636;52.424;-1.948;2023-03-25T00:02:42;97882.41;;;7.43;100.00
43364;BME280;40636;52.424;-1.948;2023-03-25T00:05:11;97873.13;;;7.44;100.00
43364;BME280;40636;52.424;-1.948;2023-03-25T00:07:41;97876.66;;;7.45;100.00
43364;BME280;40636;52.424;-1.948;2023-03-25T00:10:10;97883.25;;;7.38;100.00
43364;BME280;40636;52.424;-1.948;2023-03-25T00:12:37;97889.53;;;7.39;100.00
43364;BME280;40636;52.424;-1.948;2023-03-25T00:15:09;97889.81;;;7.37;100.00
43364;BME280;40636;52.424;-1.948;2023-03-25T00:17:36;97900.47;;;7.34;100.00
43364;BME280;40636;52.424;-1.948;2023-03-25T00:20:06;97888.44;;;7.35;100.00
43364;BME280;40636;52.424;-1.948;2023-03-25T00:22:36;97894.97;;;7.39;100.00
43364;BME280;40636;52.424;-1.948;2023-03-25T00:25:11;97905.63;;;7.41;100.00
43364;BME280;40636;52.424;-1.948;2023-03-25T00:27:42;97913.50;;;7.47;100.00
43364;BME280;40636;52.424;-1.948;2023-03-25T00:30:13;97912.69;;;7.47;100.00
43364;BME280;40636;52.424;-1.948;2023-03-25T00:32:40;97908.34;;;7.46;100.00
43364;BME280;40636;52.424;-1.948;2023-03-25T00:35:07;97908.09;;;7.37;100.00
43364;BME280;40636;52.424;-1.948;2023-03-25T00:37:34;97923.38;;;7.38;100.00
43364;BME280;40636;52.424;-1.948;2023-03-25T00:40:01;97922.28;;;7.34;100.00
43364;BME280;40636;52.424;-1.948;2023-03-25T00:42:28;97920.66;;;7.33;100.00
43364;BME280;40636;52.424;-1.948;2023-03-25T00:44:55;97918.78;;;7.28;100.00
43364;BME280;40636;52.424;-1.948;2023-03-25T00:47:22;97921.22;;;7.30;100.00
43364;BME280;40636;52.424;-1.948;2023-03-25T00:49:49;97917.38;;;7.31;100.00
43364;BME280;40636;52.424;-1.948;2023-03-25T00:52:17;97923.69;;;7.26;100.00
43364;BME280;40636;52.424;-1.948;2023-03-25T00:54:44;97919.34;;;7.20;100.00
43364;BME280;40636;52.424;-1.948;2023-03-25T00:57:11;97918.00;;;7.18;100.00
43364;BME280;40636;52.424;-1.948;2023-03-25T00:59:39;97926.19;;;7.12;100.00
43364;BME280;40636;52.424;-1.948;2023-03-25T01:02:05;97926.19;;;7.12;100.00
43364;BME280;40636;52.424;-1.948;2023-03-25T01:04:34;97929.50;;;7.09;100.00
43364;BME280;40636;52.424;-1.948;2023-03-25T01:07:07;97926.75;;;7.09;100.00
43364;BME280;40636;52.424;-1.948;2023-03-25T01:09:34;97926.75;;;7.09;100.00
43364;BME280;40636;52.424;-1.948;2023-03-25T01:12:01;97934.13;;;7.04;100.00
43364;BME280;40636;52.424;-1.948;2023-03-25T01:14:28;97924.88;;;7.05;100.00
43364;BME280;40636;52.424;-1.948;2023-03-25T01:16:54;97926.50;;;7.06;100.00
43364;BME280;40636;52.424;-1.948;2023-03-25T01:19:23;97932.22;;;7.04;100.00
43364;BME280;40636;52.424;-1.948;2023-03-25T01:21:51;97932.22;;;7.09;100.00
43364;BME280;40636;52.424;-1.948;2023-03-25T01:24:18;97929.50;;;7.09;100.00
43364;BME280;40636;52.424;-1.948;2023-03-25T01:26:45;97943.13;;;7.09;100.00
43364;BME280;40636;52.424;-1.948;2023-03-25T01:29:14;97948.00;;;7.12;100.00
43364;BME280;40636;52.424;-1.948;2023-03-25T01:31:41;97939.84;;;7.07;100.00
43364;BME280;40636;52.424;-1.948;2023-03-25T01:34:08;97942.03;;;7.05;100.00
43364;BME280;40636;52.424;-1.948;2023-03-25T01:36:35;97921.84;;;7.06;100.00
43364;BME280;40636;52.424;-1.948;2023-03-25T01:39:07;97924.59;;;7.01;100.00
43364;BME280;40636;52.424;-1.948;2023-03-25T01:41:35;97936.59;;;7.05;100.00
43364;BME280;40636;52.424;-1.948;2023-03-25T01:46:45;97938.75;;;7.03;100.00
43364;BME280;40636;52.424;-1.948;2023-03-25T01:49:21;97940.16;;;7.01;100.00
43364;BME280;40636;52.424;-1.948;2023-03-25T01:51:55;97937.69;;;6.99;100.00
43364;BME280;40636;52.424;-1.948;2023-03-25T01:54:23;97934.69;;;7.01;100.00
43364;BME280;40636;52.424;-1.948;2023-03-25T01:56:50;97937.13;;;7.02;100.00
43364;BME280;40636;52.424;-1.948;2023-03-25T01:59:19;97940.41;;;6.99;100.00
43364;BME280;40636;52.424;-1.948;2023-03-25T02:01:50;97944.78;;;7.00;100.00
43364;BME280;40636;52.424;-1.948;2023-03-25T02:04:25;97951.06;;;7.01;100.00
43364;BME280;40636;52.424;-1.948;2023-03-25T02:06:54;97936.84;;;7.04;100.00
43364;BME280;40636;52.424;-1.948;2023-03-25T02:09:24;97940.41;;;7.04;100.00
43364;BME280;40636;52.424;-1.948;2023-03-25T02:11:51;97952.13;;;7.05;100.00
43364;BME280;40636;52.424;-1.948;2023-03-25T02:14:24;97948.59;;;7.04;100.00
43364;BME280;40636;52.424;-1.948;2023-03-25T02:17:20;97950.50;;;6.99;100.00
43364;BME280;40636;52.424;-1.948;2023-03-25T02:20:06;97943.72;;;6.96;100.00
43364;BME280;40636;52.424;-1.948;2023-03-25T02:28:07;97970.16;;;6.91;100.00
43364;BME280;40636;52.424;-1.948;2023-03-25T02:33:31;97966.09;;;6.78;100.00
43364;BME280;40636;52.424;-1.948;2023-03-25T02:38:51;97975.63;;;6.75;100.00
43364;BME280;40636;52.424;-1.948;2023-03-25T02:41:23;97966.09;;;6.73;100.00
43364;BME280;40636;52.424;-1.948;2023-03-25T02:44:01;97967.47;;;6.70;100.00
43364;BME280;40636;52.424;-1.948;2023-03-25T02:46:30;97977.28;;;6.66;100.00
43364;BME280;40636;52.424;-1.948;2023-03-25T02:49:02;97970.72;;;6.62;100.00
43364;BME280;40636;52.424;-1.948;2023-03-25T02:51:34;97962.03;;;6.55;100.00
43364;BME280;40636;52.424;-1.948;2023-03-25T02:54:06;97973.47;;;6.57;100.00
43364;BME280;40636;52.424;-1.948;2023-03-25T02:56:36;97977.56;;;6.59;100.00
43364;BME280;40636;52.424;-1.948;2023-03-25T02:59:03;97984.63;;;6.60;100.00
43364;BME280;40636;52.424;-1.948;2023-03-25T03:01:35;97985.16;;;6.63;100.00
43364;BME280;40636;52.424;-1.948;2023-03-25T03:04:01;97980.81;;;6.61;100.00
43364;BME280;40636;52.424;-1.948;2023-03-25T03:06:28;97980.00;;;6.66;100.00
43364;BME280;40636;52.424;-1.948;2023-03-25T03:11:54;97994.44;;;6.72;100.00
43364;BME280;40636;52.424;-1.948;2023-03-25T03:17:16;98013.53;;;6.77;100.00
43364;BME280;40636;52.424;-1.948;2023-03-25T03:19:57;98000.72;;;6.77;100.00
43364;BME280;40636;52.424;-1.948;2023-03-25T03:30:49;98010.50;;;6.83;100.00
43364;BME280;40636;52.424;-1.948;2023-03-25T03:36:43;98029.88;;;6.87;100.00
43364;BME280;40636;52.424;-1.948;2023-03-25T03:39:34;98023.31;;;6.88;100.00
43364;BME280;40636;52.424;-1.948;2023-03-25T03:42:19;98036.44;;;6.91;100.00
43364;BME280;40636;52.424;-1.948;2023-03-25T03:44:52;98029.03;;;6.97;100.00
43364;BME280;40636;52.424;-1.948;2023-03-25T03:47:23;98028.75;;;6.98;100.00
43364;BME280;40636;52.424;-1.948;2023-03-25T03:49:55;98029.56;;;6.99;100.00
43364;BME280;40636;52.424;-1.948;2023-03-25T03:52:29;98037.50;;;7.00;100.00
43364;BME280;40636;52.424;-1.948;2023-03-25T03:55:22;98042.66;;;7.02;100.00
43364;BME280;40636;52.424;-1.948;2023-03-25T03:57:59;98035.03;;;6.99;100.00
43364;BME280;40636;52.424;-1.948;2023-03-25T04:00:47;98037.50;;;7.00;100.00
43364;BME280;40636;52.424;-1.948;2023-03-25T04:03:20;98035.31;;;7.02;100.00
43364;BME280;40636;52.424;-1.948;2023-03-25T04:05:57;98046.78;;;7.04;100.00
43364;BME280;40636;52.424;-1.948;2023-03-25T04:08:31;98054.09;;;7.04;100.00
43364;BME280;40636;52.424;-1.948;2023-03-25T04:11:11;98049.22;;;7.01;100.00
43364;BME280;40636;52.424;-1.948;2023-03-25T04:13:43;98052.78;;;7.01;100.00
43364;BME280;40636;52.424;-1.948;2023-03-25T04:16:12;98050.56;;;7.03;100.00
43364;BME280;40636;52.424;-1.948;2023-03-25T04:18:38;98060.41;;;7.04;100.00
43364;BME280;40636;52.424;-1.948;2023-03-25T04:21:05;98065.03;;;7.04;100.00
43364;BME280;40636;52.424;-1.948;2023-03-25T04:23:32;98078.41;;;7.05;100.00
43364;BME280;40636;52.424;-1.948;2023-03-25T04:26:00;98077.03;;;7.08;100.00
43364;BME280;40636;52.424;-1.948;2023-03-25T04:28:28;98084.94;;;7.09;100.00
43364;BME280;40636;52.424;-1.948;2023-03-25T04:30:57;98084.66;;;7.11;100.00
43364;BME280;40636;52.424;-1.948;2023-03-25T04:33:26;98087.94;;;7.08;100.00
43364;BME280;40636;52.424;-1.948;2023-03-25T04:35:57;98095.03;;;7.09;100.00
43364;BME280;40636;52.424;-1.948;2023-03-25T04:38:27;98099.66;;;7.08;100.00
43364;BME280;40636;52.424;-1.948;2023-03-25T04:40:55;98099.41;;;7.10;100.00
43364;BME280;40636;52.424;-1.948;2023-03-25T04:43:21;98096.94;;;7.14;100.00
43364;BME280;40636;52.424;-1.948;2023-03-25T04:45:48;98082.22;;;7.15;100.00
43364;BME280;40636;52.424;-1.948;2023-03-25T04:48:23;98098.56;;;7.15;100.00
43364;BME280;40636;52.424;-1.948;2023-03-25T04:50:51;98086.84;;;7.14;100.00
43364;BME280;40636;52.424;-1.948;2023-03-25T04:53:18;98094.47;;;7.12;100.00
43364;BME280;40636;52.424;-1.948;2023-03-25T04:55:44;98093.41;;;7.13;100.00
43364;BME280;40636;52.424;-1.948;2023-03-25T04:58:15;98087.66;;;7.15;100.00
43364;BME280;40636;52.424;-1.948;2023-03-25T05:00:43;98100.22;;;7.16;100.00
43364;BME280;40636;52.424;-1.948;2023-03-25T05:03:10;98112.22;;;7.20;100.00
43364;BME280;40636;52.424;-1.948;2023-03-25T05:05:37;98110.31;;;7.20;100.00
43364;BME280;40636;52.424;-1.948;2023-03-25T05:08:04;98120.41;;;7.20;100.00
43364;BME280;40636;52.424;-1.948;2023-03-25T05:10:31;98124.22;;;7.19;100.00
43364;BME280;40636;52.424;-1.948;2023-03-25T05:12:59;98126.38;;;7.22;100.00
43364;BME280;40636;52.424;-1.948;2023-03-25T05:15:27;98137.28;;;7.22;100.00
43364;BME280;40636;52.424;-1.948;2023-03-25T05:17:56;98131.84;;;7.22;100.00
43364;BME280;40636;52.424;-1.948;2023-03-25T05:20:23;98139.78;;;7.23;100.00
43364;BME280;40636;52.424;-1.948;2023-03-25T05:22:50;98136.22;;;7.23;100.00
43364;BME280;40636;52.424;-1.948;2023-03-25T05:25:18;98141.69;;;7.23;100.00
43364;BME280;40636;52.424;-1.948;2023-03-25T05:27:48;98144.41;;;7.23;100.00
43364;BME280;40636;52.424;-1.948;2023-03-25T05:30:15;98140.59;;;7.24;100.00
43364;BME280;40636;52.424;-1.948;2023-03-25T05:32:41;98142.22;;;7.25;100.00
43364;BME280;40636;52.424;-1.948;2023-03-25T05:35:11;98129.69;;;7.24;100.00
43364;BME280;40636;52.424;-1.948;2023-03-25T05:37:38;98137.88;;;7.19;100.00
43364;BME280;40636;52.424;-1.948;2023-03-25T05:40:05;98151.50;;;7.19;100.00
43364;BME280;40636;52.424;-1.948;2023-03-25T05:42:40;98147.16;;;7.18;100.00
43364;BME280;40636;52.424;-1.948;2023-03-25T05:45:12;98155.88;;;7.15;100.00
43364;BME280;40636;52.424;-1.948;2023-03-25T05:47:39;98147.13;;;7.12;100.00
43364;BME280;40636;52.424;-1.948;2023-03-25T05:50:07;98154.47;;;7.07;100.00
43364;BME280;40636;52.424;-1.948;2023-03-25T05:52:34;98165.41;;;7.02;100.00
43364;BME280;40636;52.424;-1.948;2023-03-25T05:55:02;98165.13;;;7.03;100.00
43364;BME280;40636;52.424;-1.948;2023-03-25T05:57:30;98174.94;;;7.04;100.00
43364;BME280;40636;52.424;-1.948;2023-03-25T05:59:57;98174.94;;;7.04;100.00
43364;BME280;40636;52.424;-1.948;2023-03-25T06:02:23;98174.41;;;7.12;100.00
43364;BME280;40636;52.424;-1.948;2023-03-25T06:04:51;98178.22;;;7.06;100.00
43364;BME280;40636;52.424;-1.948;2023-03-25T06:07:17;98177.69;;;7.09;100.00
43364;BME280;40636;52.424;-1.948;2023-03-25T06:09:48;98177.69;;;7.09;100.00
43364;BME280;40636;52.424;-1.948;2023-03-25T06:12:18;98183.66;;;7.11;100.00
43364;BME280;40636;52.424;-1.948;2023-03-25T06:14:48;98183.66;;;7.11;100.00
43364;BME280;40636;52.424;-1.948;2023-03-25T06:17:20;98188.59;;;7.15;100.00
43364;BME280;40636;52.424;-1.948;2023-03-25T06:19:50;98204.44;;;7.18;100.00
43364;BME280;40636;52.424;-1.948;2023-03-25T06:22:17;98206.31;;;7.17;100.00
43364;BME280;40636;52.424;-1.948;2023-03-25T06:24:47;98205.50;;;7.17;100.00
43364;BME280;40636;52.424;-1.948;2023-03-25T06:27:16;98214.50;;;7.17;100.00
43364;BME280;40636;52.424;-1.948;2023-03-25T06:29:44;98222.97;;;7.21;100.00
43364;BME280;40636;52.424;-1.948;2023-03-25T06:32:12;98221.34;;;7.20;100.00
43364;BME280;40636;52.424;-1.948;2023-03-25T06:34:39;98229.22;;;7.16;100.00
43364;BME280;40636;52.424;-1.948;2023-03-25T06:37:08;98233.59;;;7.17;100.00
43364;BME280;40636;52.424;-1.948;2023-03-25T06:39:35;98218.06;;;7.18;100.00
43364;BME280;40636;52.424;-1.948;2023-03-25T06:42:06;98249.16;;;7.22;100.00
43364;BME280;40636;52.424;-1.948;2023-03-25T06:44:32;98230.63;;;7.24;100.00
43364;BME280;40636;52.424;-1.948;2023-03-25T06:46:59;98240.97;;;7.22;100.00
43364;BME280;40636;52.424;-1.948;2023-03-25T06:49:28;98250.53;;;7.14;100.00
43364;BME280;40636;52.424;-1.948;2023-03-25T06:51:55;98266.03;;;7.08;100.00
43364;BME280;40636;52.424;-1.948;2023-03-25T06:54:22;98276.41;;;7.06;100.00
43364;BME280;40636;52.424;-1.948;2023-03-25T06:56:49;98275.88;;;7.09;100.00
43364;BME280;40636;52.424;-1.948;2023-03-25T06:59:16;98278.91;;;7.18;100.00
43364;BME280;40636;52.424;-1.948;2023-03-25T07:01:43;98284.59;;;7.22;100.00
43364;BME280;40636;52.424;-1.948;2023-03-25T07:04:10;98284.38;;;7.23;100.00
43364;BME280;40636;52.424;-1.948;2023-03-25T07:06:36;98302.38;;;7.24;100.00
43364;BME280;40636;52.424;-1.948;2023-03-25T07:09:03;98308.94;;;7.33;100.00
43364;BME280;40636;52.424;-1.948;2023-03-25T07:11:31;98327.75;;;7.40;100.00
43364;BME280;40636;52.424;-1.948;2023-03-25T07:13:58;98322.88;;;7.42;100.00
43364;BME280;40636;52.424;-1.948;2023-03-25T07:16:25;98323.69;;;7.43;100.00
43364;BME280;40636;52.424;-1.948;2023-03-25T07:18:52;98328.34;;;7.47;100.00
43364;BME280;40636;52.424;-1.948;2023-03-25T07:21:24;98323.41;;;7.49;100.00
43364;BME280;40636;52.424;-1.948;2023-03-25T07:23:51;98339.25;;;7.52;100.00
43364;BME280;40636;52.424;-1.948;2023-03-25T07:26:18;98340.88;;;7.58;100.00
43364;BME280;40636;52.424;-1.948;2023-03-25T07:28:45;98353.47;;;7.65;100.00
43364;BME280;40636;52.424;-1.948;2023-03-25T07:31:14;98351.03;;;7.68;100.00
43364;BME280;40636;52.424;-1.948;2023-03-25T07:33:42;98349.13;;;7.69;100.00
43364;BME280;40636;52.424;-1.948;2023-03-25T07:36:10;98358.94;;;7.70;100.00
43364;BME280;40636;52.424;-1.948;2023-03-25T07:38:37;98362.25;;;7.77;100.00
43364;BME280;40636;52.424;-1.948;2023-03-25T07:41:09;98371.53;;;7.86;100.00
43364;BME280;40636;52.424;-1.948;2023-03-25T07:43:37;98368.00;;;7.91;100.00
43364;BME280;40636;52.424;-1.948;2023-03-25T07:46:04;98374.28;;;7.91;100.00
43364;BME280;40636;52.424;-1.948;2023-03-25T07:48:31;98376.19;;;7.91;100.00
43364;BME280;40636;52.424;-1.948;2023-03-25T07:50:58;98381.09;;;7.88;100.00
43364;BME280;40636;52.424;-1.948;2023-03-25T07:53:25;98384.63;;;7.94;100.00
43364;BME280;40636;52.424;-1.948;2023-03-25T07:55:52;98390.09;;;7.89;100.00
43364;BME280;40636;52.424;-1.948;2023-03-25T07:58:19;98378.09;;;7.95;100.00
43364;BME280;40636;52.424;-1.948;2023-03-25T08:00:46;98391.47;;;7.97;100.00
43364;BME280;40636;52.424;-1.948;2023-03-25T08:03:13;98380.81;;;8.05;100.00
43364;BME280;40636;52.424;-1.948;2023-03-25T08:05:47;98406.78;;;8.08;100.00
43364;BME280;40636;52.424;-1.948;2023-03-25T08:08:14;98394.50;;;8.10;100.00
43364;BME280;40636;52.424;-1.948;2023-03-25T08:10:42;98408.16;;;8.05;100.00
43364;BME280;40636;52.424;-1.948;2023-03-25T08:13:09;98403.25;;;8.18;100.00
43364;BME280;40636;52.424;-1.948;2023-03-25T08:15:37;98404.88;;;8.29;100.00
43364;BME280;40636;52.424;-1.948;2023-03-25T08:18:05;98411.47;;;8.38;100.00
43364;BME280;40636;52.424;-1.948;2023-03-25T08:20:33;98417.47;;;8.45;100.00
43364;BME280;40636;52.424;-1.948;2023-03-25T08:23:00;98420.47;;;8.44;100.00
43364;BME280;40636;52.424;-1.948;2023-03-25T08:25:29;98424.00;;;8.49;100.00
43364;BME280;40636;52.424;-1.948;2023-03-25T08:27:56;98437.72;;;8.54;100.00
43364;BME280;40636;52.424;-1.948;2023-03-25T08:30:22;98444.53;;;8.57;100.00
43364;BME280;40636;52.424;-1.948;2023-03-25T08:32:49;98445.91;;;8.59;100.00
43364;BME280;40636;52.424;-1.948;2023-03-25T08:35:21;98440.44;;;8.64;100.00
43364;BME280;40636;52.424;-1.948;2023-03-25T08:37:49;98439.06;;;8.72;100.00
43364;BME280;40636;52.424;-1.948;2023-03-25T08:40:16;98444.50;;;8.82;100.00
43364;BME280;40636;52.424;-1.948;2023-03-25T08:42:43;98445.03;;;8.89;100.00
43364;BME280;40636;52.424;-1.948;2023-03-25T08:45:10;98445.28;;;8.93;100.00
43364;BME280;40636;52.424;-1.948;2023-03-25T08:47:38;98451.84;;;9.02;100.00
43364;BME280;40636;52.424;-1.948;2023-03-25T08:50:05;98464.69;;;9.12;100.00
43364;BME280;40636;52.424;-1.948;2023-03-25T08:52:31;98460.28;;;9.21;100.00
43364;BME280;40636;52.424;-1.948;2023-03-25T08:54:58;98471.47;;;9.30;100.00
43364;BME280;40636;52.424;-1.948;2023-03-25T08:57:25;98470.09;;;9.37;100.00
43364;BME280;40636;52.424;-1.948;2023-03-25T08:59:52;98479.91;;;9.44;100.00
43364;BME280;40636;52.424;-1.948;2023-03-25T09:02:18;98482.63;;;9.54;100.00
43364;BME280;40636;52.424;-1.948;2023-03-25T09:04:47;98496.31;;;9.59;100.00
43364;BME280;40636;52.424;-1.948;2023-03-25T09:07:14;98505.28;;;9.70;100.00
43364;BME280;40636;52.424;-1.948;2023-03-25T09:09:41;98509.13;;;9.74;100.00
43364;BME280;40636;52.424;-1.948;2023-03-25T09:12:08;98497.38;;;9.68;100.00
43364;BME280;40636;52.424;-1.948;2023-03-25T09:14:35;98501.41;;;9.81;100.00
43364;BME280;40636;52.424;-1.948;2023-03-25T09:17:02;98501.66;;;9.84;100.00
43364;BME280;40636;52.424;-1.948;2023-03-25T09:19:33;98502.19;;;9.91;100.00
43364;BME280;40636;52.424;-1.948;2023-03-25T09:22:00;98502.75;;;9.83;100.00
43364;BME280;40636;52.424;-1.948;2023-03-25T09:24:27;98505.78;;;9.82;100.00
43364;BME280;40636;52.424;-1.948;2023-03-25T09:26:53;98513.41;;;9.90;100.00
43364;BME280;40636;52.424;-1.948;2023-03-25T09:29:20;98520.03;;;9.84;100.00
43364;BME280;40636;52.424;-1.948;2023-03-25T09:31:47;98544.38;;;9.85;100.00
43364;BME280;40636;52.424;-1.948;2023-03-25T09:34:14;98527.41;;;9.88;100.00
43364;BME280;40636;52.424;-1.948;2023-03-25T09:36:41;98539.19;;;9.89;100.00
43364;BME280;40636;52.424;-1.948;2023-03-25T09:39:08;98535.88;;;9.92;100.00
43364;BME280;40636;52.424;-1.948;2023-03-25T09:44:18;98538.34;;;9.94;100.00
43364;BME280;40636;52.424;-1.948;2023-03-25T09:46:47;98543.28;;;9.91;100.00
43364;BME280;40636;52.424;-1.948;2023-03-25T09:49:22;98547.06;;;10.01;100.00
43364;BME280;40636;52.424;-1.948;2023-03-25T09:51:52;98562.97;;;9.99;100.00
43364;BME280;40636;52.424;-1.948;2023-03-25T09:54:29;98568.13;;;10.10;100.00
43364;BME280;40636;52.424;-1.948;2023-03-25T09:56:58;98568.63;;;10.23;100.00
43364;BME280;40636;52.424;-1.948;2023-03-25T09:59:39;98559.00;;;10.30;100.00
43364;BME280;40636;52.424;-1.948;2023-03-25T10:13:09;98565.75;;;10.48;100.00
43364;BME280;40636;52.424;-1.948;2023-03-25T10:16:03;98579.97;;;10.55;100.00
43364;BME280;40636;52.424;-1.948;2023-03-25T10:18:59;98585.63;;;10.74;100.00
43364;BME280;40636;52.424;-1.948;2023-03-25T10:21:44;98588.53;;;10.88;100.00
43364;BME280;40636;52.424;-1.948;2023-03-25T10:27:08;98576.81;;;11.11;100.00
43364;BME280;40636;52.424;-1.948;2023-03-25T10:29:46;98584.09;;;11.26;100.00
43364;BME280;40636;52.424;-1.948;2023-03-25T10:32:17;98606.75;;;11.42;100.00
43364;BME280;40636;52.424;-1.948;2023-03-25T10:34:48;98597.50;;;11.33;100.00
43364;BME280;40636;52.424;-1.948;2023-03-25T10:37:22;98606.81;;;11.37;100.00
43364;BME280;40636;52.424;-1.948;2023-03-25T10:39:50;98612.53;;;11.40;100.00
43364;BME280;40636;52.424;-1.948;2023-03-25T10:44:47;98615.28;;;11.06;100.00
43364;BME280;40636;52.424;-1.948;2023-03-25T10:47:20;98623.06;;;10.99;100.00
43364;BME280;40636;52.424;-1.948;2023-03-25T10:49:51;98619.66;;;11.07;100.00
43364;BME280;40636;52.424;-1.948;2023-03-25T10:52:18;98625.56;;;11.25;100.00
43364;BME280;40636;52.424;-1.948;2023-03-25T10:54:50;98630.34;;;11.43;100.00
43364;BME280;40636;52.424;-1.948;2023-03-25T10:57:29;98637.53;;;11.39;100.00
43364;BME280;40636;52.424;-1.948;2023-03-25T11:00:23;98644.91;;;11.43;100.00
43364;BME280;40636;52.424;-1.948;2023-03-25T11:02:51;98650.59;;;11.52;100.00
43364;BME280;40636;52.424;-1.948;2023-03-25T11:05:23;98651.72;;;11.51;100.00
43364;BME280;40636;52.424;-1.948;2023-03-25T11:07:58;98647.84;;;11.52;100.00
43364;BME280;40636;52.424;-1.948;2023-03-25T11:10:37;98652.47;;;11.57;100.00
43364;BME280;40636;52.424;-1.948;2023-03-25T11:13:10;98662.97;;;11.55;100.00
43364;BME280;40636;52.424;-1.948;2023-03-25T11:15:39;98655.44;;;11.65;100.00
43364;BME280;40636;52.424;-1.948;2023-03-25T11:18:26;98653.63;;;11.80;100.00
43364;BME280;40636;52.424;-1.948;2023-03-25T11:21:06;98675.97;;;11.73;100.00
43364;BME280;40636;52.424;-1.948;2023-03-25T11:23:42;98661.91;;;11.51;100.00
43364;BME280;40636;52.424;-1.948;2023-03-25T11:26:20;98688.59;;;11.45;100.00
43364;BME280;40636;52.424;-1.948;2023-03-25T11:28:54;98677.06;;;11.43;100.00
43364;BME280;40636;52.424;-1.948;2023-03-25T11:31:24;98678.88;;;11.24;100.00
43364;BME280;40636;52.424;-1.948;2023-03-25T11:37:15;98684.28;;;11.34;100.00
43364;BME280;40636;52.424;-1.948;2023-03-25T11:39:51;98699.69;;;11.30;100.00
43364;BME280;40636;52.424;-1.948;2023-03-25T11:45:03;98685.81;;;11.50;100.00
43364;BME280;40636;52.424;-1.948;2023-03-25T11:47:32;98689.56;;;11.59;100.00
43364;BME280;40636;52.424;-1.948;2023-03-25T11:50:00;98699.09;;;11.67;100.00
43364;BME280;40636;52.424;-1.948;2023-03-25T11:52:40;98718.25;;;11.43;100.00
43364;BME280;40636;52.424;-1.948;2023-03-25T11:55:19;98712.06;;;11.61;100.00
43364;BME280;40636;52.424;-1.948;2023-03-25T11:57:50;98708.19;;;11.67;100.00
43364;BME280;40636;52.424;-1.948;2023-03-25T12:03:00;98717.66;;;11.80;100.00
43364;BME280;40636;52.424;-1.948;2023-03-25T12:05:27;98720.47;;;11.75;100.00
43364;BME280;40636;52.424;-1.948;2023-03-25T12:08:16;98732.22;;;11.81;100.00
43364;BME280;40636;52.424;-1.948;2023-03-25T12:10:57;98717.97;;;11.79;100.00
43364;BME280;40636;52.424;-1.948;2023-03-25T12:27:23;98725.56;;;12.21;100.00
43364;BME280;40636;52.424;-1.948;2023-03-25T12:30:08;98730.41;;;12.05;100.00
43364;BME280;40636;52.424;-1.948;2023-03-25T12:49:33;98742.84;;;11.98;100.00
43364;BME280;40636;52.424;-1.948;2023-03-25T12:55:01;98757.66;;;11.62;100.00
43364;BME280;40636;52.424;-1.948;2023-03-25T13:09:36;98781.19;;;11.84;100.00
43364;BME280;40636;52.424;-1.948;2023-03-25T13:12:16;98777.63;;;11.78;100.00
43364;BME280;40636;52.424;-1.948;2023-03-25T13:17:32;98773.34;;;11.62;100.00
43364;BME280;40636;52.424;-1.948;2023-03-25T13:20:01;98781.53;;;11.72;100.00
43364;BME280;40636;52.424;-1.948;2023-03-25T13:22:34;98777.19;;;11.61;100.00
43364;BME280;40636;52.424;-1.948;2023-03-25T13:25:06;98784.13;;;11.53;100.00
43364;BME280;40636;52.424;-1.948;2023-03-25T13:27:38;98787.97;;;11.52;100.00
43364;BME280;40636;52.424;-1.948;2023-03-25T13:30:14;98785.47;;;11.56;100.00
43364;BME280;40636;52.424;-1.948;2023-03-25T13:32:48;98784.31;;;11.62;100.00
43364;BME280;40636;52.424;-1.948;2023-03-25T13:38:22;98786.72;;;11.74;100.00
43364;BME280;40636;52.424;-1.948;2023-03-25T13:41:11;98793.34;;;11.73;100.00
43364;BME280;40636;52.424;-1.948;2023-03-25T13:43:50;98787.19;;;11.81;100.00
43364;BME280;40636;52.424;-1.948;2023-03-25T13:46:25;98791.94;;;11.75;100.00
43364;BME280;40636;52.424;-1.948;2023-03-25T13:49:02;98777.88;;;11.82;100.00
43364;BME280;40636;52.424;-1.948;2023-03-25T13:51:31;98786.13;;;11.82;100.00
43364;BME280;40636;52.424;-1.948;2023-03-25T13:54:05;98782.69;;;12.00;100.00
43364;BME280;40636;52.424;-1.948;2023-03-25T14:00:01;98787.66;;;11.98;100.00
43364;BME280;40636;52.424;-1.948;2023-03-25T14:10:48;98793.78;;;12.19;100.00
43364;BME280;40636;52.424;-1.948;2023-03-25T14:18:21;98777.75;;;11.97;100.00
43364;BME280;40636;52.424;-1.948;2023-03-25T14:20:49;98779.66;;;12.02;100.00
43364;BME280;40636;52.424;-1.948;2023-03-25T14:23:18;98774.09;;;12.07;100.00
43364;BME280;40636;52.424;-1.948;2023-03-25T14:25:52;98783.47;;;12.06;100.00
43364;BME280;40636;52.424;-1.948;2023-03-25T14:28:34;98789.25;;;12.04;100.00
43364;BME280;40636;52.424;-1.948;2023-03-25T14:36:29;98788.50;;;11.93;100.00
43364;BME280;40636;52.424;-1.948;2023-03-25T14:38:56;98795.41;;;11.91;100.00
43364;BME280;40636;52.424;-1.948;2023-03-25T14:42:02;98787.66;;;11.98;100.00
43364;BME280;40636;52.424;-1.948;2023-03-25T14:44:43;98784.06;;;11.98;100.00
43364;BME280;40636;52.424;-1.948;2023-03-25T14:52:17;98775.97;;;12.11;100.00
43364;BME280;40636;52.424;-1.948;2023-03-25T14:54:50;98779.78;;;12.15;100.00
43364;BME280;40636;52.424;-1.948;2023-03-25T14:57:24;98774.84;;;12.17;100.00
43364;BME280;40636;52.424;-1.948;2023-03-25T14:59:54;98783.66;;;12.14;100.00
43364;BME280;40636;52.424;-1.948;2023-03-25T15:02:27;98780.41;;;12.07;100.00
43364;BME280;40636;52.424;-1.948;2023-03-25T15:05:02;98781.59;;;12.01;100.00
43364;BME280;40636;52.424;-1.948;2023-03-25T15:07:49;98785.97;;;12.02;100.00
43364;BME280;40636;52.424;-1.948;2023-03-25T15:10:27;98795.38;;;11.96;100.00
43364;BME280;40636;52.424;-1.948;2023-03-25T15:17:58;98793.69;;;11.61;100.00
43364;BME280;40636;52.424;-1.948;2023-03-25T15:20:28;98805.56;;;11.51;100.00
43364;BME280;40636;52.424;-1.948;2023-03-25T15:25:49;98813.78;;;11.56;100.00
43364;BME280;40636;52.424;-1.948;2023-03-25T15:28:29;98798.66;;;11.59;100.00
43364;BME280;40636;52.424;-1.948;2023-03-25T15:34:02;98812.56;;;11.73;100.00